createdAt,value
2023-01-21T00:02:13.490Z,20.63
2023-01-21T00:04:42.156Z,17.98
2023-01-21T00:07:10.406Z,19.35
2023-01-21T00:09:40.984Z,17.15
2023-01-21T00:12:09.281Z,16.77
2023-01-21T00:14:37.788Z,16.98
2023-01-21T00:17:06.365Z,16.30
2023-01-21T00:19:34.928Z,17.65
2023-01-21T00:22:03.311Z,16.35
2023-01-21T00:24:34.609Z,17.58
2023-01-21T00:27:04.716Z,17.52
2023-01-21T00:29:33.243Z,17.25
2023-01-21T00:32:01.453Z,15.88
2023-01-21T00:34:30.028Z,15.73
2023-01-21T00:36:58.231Z,18.27
2023-01-21T00:39:27.264Z,16.17
2023-01-21T00:41:55.493Z,16.93
2023-01-21T00:44:26.438Z,16.95
2023-01-21T00:46:54.697Z,16.75
2023-01-21T00:49:23.326Z,15.95
2023-01-21T00:51:54.665Z,15.90
2023-01-21T00:54:23.147Z,17.98
2023-01-21T00:56:51.601Z,17.25
2023-01-21T00:59:20.137Z,18.42
2023-01-21T01:01:49.913Z,17.85
2023-01-21T01:04:18.412Z,15.30
2023-01-21T01:06:46.654Z,16.25
2023-01-21T01:09:15.253Z,17.87
2023-01-21T01:11:43.432Z,16.85
2023-01-21T01:14:11.955Z,18.20
2023-01-21T01:16:40.151Z,18.85
2023-01-21T01:19:11.200Z,17.73
2023-01-21T01:21:39.924Z,15.00
2023-01-21T01:24:09.555Z,18.10
2023-01-21T01:29:06.939Z,17.60
2023-01-21T01:31:35.177Z,19.13
2023-01-21T01:34:03.783Z,19.20
2023-01-21T01:36:35.846Z,18.67
2023-01-21T01:39:04.518Z,19.48
2023-01-21T01:41:37.611Z,20.13
2023-01-21T01:44:08.148Z,19.27
2023-01-21T01:46:37.957Z,19.67
2023-01-21T01:49:13.775Z,17.42
2023-01-21T01:51:50.095Z,16.20
2023-01-21T01:54:23.381Z,16.77
2023-01-21T01:56:55.279Z,14.77
2023-01-21T01:59:24.667Z,13.32
2023-01-21T02:01:52.973Z,15.27
2023-01-21T02:04:24.410Z,14.60
2023-01-21T02:06:56.846Z,12.40
2023-01-21T02:09:29.929Z,11.45
2023-01-21T02:11:59.566Z,12.15
2023-01-21T02:14:28.655Z,10.82
2023-01-21T02:17:09.905Z,8.77
2023-01-21T02:20:20.058Z,6.07
2023-01-21T02:22:56.332Z,5.15
2023-01-21T02:26:23.739Z,4.90
2023-01-21T02:29:19.552Z,4.50
2023-01-21T02:32:16.958Z,2.60
2023-01-21T02:34:55.153Z,4.07
2023-01-21T02:37:35.620Z,2.47
2023-01-21T02:40:16.367Z,2.10
2023-01-21T02:42:47.786Z,2.20
2023-01-21T02:45:28.398Z,2.17
2023-01-21T02:48:06.245Z,1.80
2023-01-21T02:50:38.838Z,2.33
2023-01-21T02:53:07.454Z,1.63
2023-01-21T02:55:38.278Z,2.30
2023-01-21T02:58:12.071Z,2.10
2023-01-21T03:00:55.480Z,2.15
2023-01-21T03:03:44.487Z,2.80
2023-01-21T03:06:38.283Z,3.20
2023-01-21T03:09:18.897Z,3.30
2023-01-21T03:11:58.339Z,3.30
2023-01-21T03:14:51.152Z,4.13
2023-01-21T03:17:29.343Z,3.97
2023-01-21T03:20:04.013Z,4.70
2023-01-21T03:22:36.928Z,8.20
2023-01-21T03:25:09.014Z,5.63
2023-01-21T03:27:40.574Z,3.90
2023-01-21T03:34:04.227Z,3.17
2023-01-21T03:36:39.020Z,2.28
2023-01-21T03:39:14.460Z,2.53
2023-01-21T03:41:43.223Z,2.45
2023-01-21T03:44:11.767Z,2.47
2023-01-21T03:46:47.740Z,2.20
2023-01-21T03:49:21.978Z,2.53
2023-01-21T03:51:55.843Z,1.70
2023-01-21T03:54:25.719Z,1.83
2023-01-21T03:56:54.459Z,1.63
2023-01-21T03:59:22.739Z,1.77
2023-01-21T04:01:53.688Z,1.90
2023-01-21T04:04:22.008Z,1.30
2023-01-21T04:06:50.795Z,1.30
2023-01-21T04:09:19.027Z,1.55
2023-01-21T04:11:51.575Z,1.42
2023-01-21T04:14:20.347Z,1.17
2023-01-21T04:16:48.878Z,1.60
2023-01-21T04:19:17.184Z,1.75
2023-01-21T04:21:45.736Z,1.20
2023-01-21T04:24:14.028Z,1.30
2023-01-21T04:26:45.487Z,0.80
2023-01-21T04:29:15.117Z,1.30
2023-01-21T04:31:43.915Z,0.95
2023-01-21T04:34:12.602Z,1.00
2023-01-21T04:36:41.371Z,0.98
2023-01-21T04:39:11.528Z,1.23
2023-01-21T04:41:40.537Z,0.93
2023-01-21T04:44:09.127Z,1.10
2023-01-21T04:46:39.101Z,1.20
2023-01-21T04:49:07.603Z,0.90
2023-01-21T04:51:36.498Z,1.30
2023-01-21T04:54:04.912Z,1.15
2023-01-21T04:56:33.494Z,1.90
2023-01-21T04:59:01.807Z,1.52
2023-01-21T05:01:30.442Z,1.20
2023-01-21T05:04:00.065Z,1.60
2023-01-21T05:06:28.619Z,1.40
2023-01-21T05:08:57.050Z,0.95
2023-01-21T05:11:25.861Z,1.17
2023-01-21T05:13:54.132Z,1.47
2023-01-21T05:16:23.291Z,1.40
2023-01-21T05:18:51.531Z,0.90
2023-01-21T05:21:21.451Z,1.13
2023-01-21T05:23:49.704Z,1.30
2023-01-21T05:26:21.946Z,1.95
2023-01-21T05:28:50.198Z,1.35
2023-01-21T05:31:18.893Z,1.57
2023-01-21T05:33:47.283Z,1.60
2023-01-21T05:36:16.122Z,1.45
2023-01-21T05:38:46.017Z,1.17
2023-01-21T05:41:14.533Z,1.30
2023-01-21T05:43:42.746Z,0.90
2023-01-21T05:46:11.342Z,0.87
2023-01-21T05:48:39.688Z,0.90
2023-01-21T05:51:08.208Z,0.98
2023-01-21T05:53:36.725Z,1.20
2023-01-21T05:56:07.356Z,1.10
2023-01-21T05:58:36.718Z,0.80
2023-01-21T06:01:05.430Z,3.83
2023-01-21T06:03:33.746Z,0.80
2023-01-21T06:06:02.627Z,0.80
2023-01-21T06:08:30.965Z,0.95
2023-01-21T06:10:59.470Z,1.27
2023-01-21T06:13:29.303Z,0.95
2023-01-21T06:15:58.082Z,1.13
2023-01-21T06:18:26.548Z,1.00
2023-01-21T06:20:55.180Z,1.23
2023-01-21T06:23:23.381Z,1.40
2023-01-21T06:25:51.891Z,1.20
2023-01-21T06:28:20.482Z,1.77
2023-01-21T06:30:50.785Z,1.30
2023-01-21T06:33:19.103Z,1.48
2023-01-21T06:35:47.665Z,1.10
2023-01-21T06:38:16.137Z,1.13
2023-01-21T06:40:45.122Z,1.35
2023-01-21T06:43:13.315Z,1.30
2023-01-21T06:45:41.797Z,2.23
2023-01-21T06:48:11.957Z,1.60
2023-01-21T06:50:40.440Z,2.25
2023-01-21T06:53:08.659Z,1.08
2023-01-21T06:55:37.186Z,1.37
2023-01-21T06:58:05.465Z,1.38
2023-01-21T07:00:34.027Z,1.60
2023-01-21T07:03:02.548Z,1.80
2023-01-21T07:05:32.570Z,3.38
2023-01-21T07:08:00.765Z,1.80
2023-01-21T07:10:29.474Z,1.20
2023-01-21T07:12:57.664Z,1.80
2023-01-21T07:15:30.898Z,1.10
2023-01-21T07:17:59.169Z,1.90
2023-01-21T07:20:27.845Z,1.27
2023-01-21T07:22:57.452Z,1.40
2023-01-21T07:25:26.008Z,1.30
2023-01-21T07:27:54.191Z,1.75
2023-01-21T07:30:22.892Z,1.52
2023-01-21T07:32:51.084Z,1.50
2023-01-21T07:35:19.868Z,1.25
2023-01-21T07:37:48.728Z,1.17
2023-01-21T07:40:19.259Z,1.58
2023-01-21T07:42:52.268Z,1.65
2023-01-21T07:45:21.564Z,1.52
2023-01-21T07:47:50.556Z,1.70
2023-01-21T07:50:19.261Z,2.13
2023-01-21T07:52:47.484Z,1.42
2023-01-21T07:55:17.359Z,1.60
2023-01-21T07:57:47.072Z,1.70
2023-01-21T08:00:16.692Z,1.65
2023-01-21T08:02:45.000Z,1.98
2023-01-21T08:05:13.593Z,1.58
2023-01-21T08:07:41.783Z,0.90
2023-01-21T08:10:11.300Z,1.45
2023-01-21T08:15:12.452Z,1.58
2023-01-21T08:17:41.293Z,1.70
2023-01-21T08:20:11.775Z,1.75
2023-01-21T08:22:40.744Z,4.05
2023-01-21T08:25:10.798Z,29.08
2023-01-21T08:27:39.210Z,1.70
2023-01-21T08:30:09.103Z,14.37
2023-01-21T08:32:39.038Z,1.73
2023-01-21T08:35:08.914Z,1.33
2023-01-21T08:37:37.146Z,1.77
2023-01-21T08:40:07.573Z,1.80
2023-01-21T08:42:35.749Z,1.67
2023-01-21T08:45:04.652Z,6.03
2023-01-21T08:47:32.892Z,1.55
2023-01-21T08:50:03.513Z,2.20
2023-01-21T08:52:31.745Z,1.55
2023-01-21T08:55:00.259Z,3.77
2023-01-21T08:57:28.813Z,2.23
2023-01-21T08:59:57.366Z,2.50
2023-01-21T09:02:25.598Z,2.33
2023-01-21T09:04:54.632Z,2.30
2023-01-21T09:07:24.211Z,2.85
2023-01-21T09:09:52.707Z,1.55
2023-01-21T09:12:20.998Z,2.30
2023-01-21T09:14:49.549Z,3.50
2023-01-21T09:17:18.197Z,2.33
2023-01-21T09:19:46.984Z,2.00
2023-01-21T09:22:15.246Z,3.10
2023-01-21T09:24:45.904Z,3.22
2023-01-21T09:27:14.144Z,2.75
2023-01-21T09:29:42.805Z,2.00
2023-01-21T09:32:11.087Z,2.28
2023-01-21T09:34:39.628Z,2.53
2023-01-21T09:37:07.808Z,1.73
2023-01-21T09:39:36.266Z,2.08
2023-01-21T09:42:06.662Z,2.60
2023-01-21T09:44:40.027Z,2.28
2023-01-21T09:47:18.555Z,2.65
2023-01-21T09:49:51.246Z,2.03
2023-01-21T09:52:27.506Z,2.45
2023-01-21T09:54:57.184Z,2.80
2023-01-21T09:57:51.304Z,3.90
2023-01-21T10:00:37.974Z,4.90
2023-01-21T10:03:21.909Z,2.63
2023-01-21T10:06:02.819Z,3.75
2023-01-21T10:08:42.256Z,7.07
2023-01-21T10:11:29.259Z,3.05
2023-01-21T10:14:12.633Z,1.85
2023-01-21T10:16:47.122Z,2.85
2023-01-21T10:19:22.581Z,2.72
2023-01-21T10:21:55.844Z,3.60
2023-01-21T10:24:28.004Z,2.72
2023-01-21T10:26:57.319Z,2.42
2023-01-21T10:29:28.597Z,2.47
2023-01-21T10:32:01.343Z,1.95
2023-01-21T10:34:31.800Z,1.92
2023-01-21T10:37:13.587Z,2.38
2023-01-21T10:39:50.482Z,2.35
2023-01-21T10:42:45.591Z,2.45
2023-01-21T10:45:26.722Z,2.15
2023-01-21T10:48:02.972Z,1.73
2023-01-21T10:50:41.776Z,1.70
2023-01-21T10:53:20.432Z,2.10
2023-01-21T10:56:05.974Z,2.55
2023-01-21T10:58:38.616Z,2.30
2023-01-21T11:01:16.423Z,2.20
2023-01-21T11:03:47.877Z,2.00
2023-01-21T11:06:19.442Z,2.00
2023-01-21T11:08:51.584Z,2.72
2023-01-21T11:11:28.157Z,2.50
2023-01-21T11:13:57.481Z,1.83
2023-01-21T11:16:43.358Z,1.90
2023-01-21T11:19:15.469Z,1.70
2023-01-21T11:21:59.482Z,2.22
2023-01-21T11:24:29.782Z,2.35
2023-01-21T11:27:00.569Z,2.88
2023-01-21T11:29:41.103Z,2.85
2023-01-21T11:32:19.584Z,2.17
2023-01-21T11:34:50.551Z,2.30
2023-01-21T11:37:25.179Z,1.90
2023-01-21T11:39:56.919Z,2.17
2023-01-21T11:42:26.270Z,2.40
2023-01-21T11:44:56.179Z,2.03
2023-01-21T11:47:38.716Z,1.80
2023-01-21T11:50:15.674Z,1.60
2023-01-21T11:52:44.483Z,2.10
2023-01-21T11:55:22.171Z,2.03
2023-01-21T11:57:53.730Z,2.20
2023-01-21T12:00:25.633Z,2.20
2023-01-21T12:02:59.680Z,2.10
2023-01-21T12:05:33.143Z,1.92
2023-01-21T12:08:04.655Z,2.03
2023-01-21T12:10:37.245Z,2.10
2023-01-21T12:13:28.455Z,1.98
2023-01-21T12:16:23.236Z,2.55
2023-01-21T12:19:16.477Z,1.70
2023-01-21T12:21:58.413Z,1.83
2023-01-21T12:24:40.340Z,1.80
2023-01-21T12:27:22.157Z,2.20
2023-01-21T12:30:01.054Z,2.78
2023-01-21T12:32:33.280Z,2.15
2023-01-21T12:35:08.856Z,2.47
2023-01-21T12:37:46.896Z,2.53
2023-01-21T12:40:20.676Z,1.77
2023-01-21T12:42:55.297Z,2.45
2023-01-21T12:45:31.923Z,2.08
2023-01-21T12:48:04.418Z,1.83
2023-01-21T12:50:39.816Z,2.83
2023-01-21T12:53:19.083Z,1.98
2023-01-21T12:56:03.912Z,2.30
2023-01-21T12:58:36.216Z,2.70
2023-01-21T13:01:10.008Z,2.60
2023-01-21T13:03:49.370Z,3.05
2023-01-21T13:06:29.529Z,2.22
2023-01-21T13:09:06.403Z,3.08
2023-01-21T13:11:40.200Z,4.80
2023-01-21T13:14:26.557Z,3.88
2023-01-21T13:17:00.402Z,2.53
2023-01-21T13:19:29.083Z,3.10
2023-01-21T13:22:05.841Z,3.55
2023-01-21T13:24:44.821Z,2.60
2023-01-21T13:27:21.467Z,2.40
2023-01-21T13:29:58.905Z,3.58
2023-01-21T13:32:38.000Z,3.45
2023-01-21T13:35:22.039Z,2.45
2023-01-21T13:38:02.346Z,3.85
2023-01-21T13:40:42.131Z,3.08
2023-01-21T13:46:01.597Z,2.88
2023-01-21T13:48:46.863Z,2.90
2023-01-21T13:51:27.628Z,3.22
2023-01-21T13:54:12.522Z,3.95
2023-01-21T13:57:00.161Z,4.82
2023-01-21T13:59:35.877Z,3.47
2023-01-21T14:02:11.703Z,3.60
2023-01-21T14:04:45.502Z,4.53
2023-01-21T14:07:19.849Z,5.22
2023-01-21T14:09:55.458Z,5.18
2023-01-21T14:12:39.698Z,5.25
2023-01-21T14:15:38.137Z,4.60
2023-01-21T14:18:38.388Z,4.93
2023-01-21T14:21:22.083Z,5.82
2023-01-21T14:24:26.320Z,4.57
2023-01-21T14:27:15.126Z,5.20
2023-01-21T14:32:21.715Z,4.28
2023-01-21T14:35:02.360Z,4.65
2023-01-21T14:37:35.354Z,5.72
2023-01-21T14:40:13.651Z,5.65
2023-01-21T14:42:45.887Z,6.13
2023-01-21T14:45:16.752Z,5.03
2023-01-21T14:47:54.510Z,4.80
2023-01-21T14:50:44.919Z,5.05
2023-01-21T14:53:18.053Z,5.95
2023-01-21T14:55:46.805Z,5.65
2023-01-21T14:58:24.733Z,5.93
2023-01-21T15:00:53.997Z,5.63
2023-01-21T15:03:28.512Z,5.18
2023-01-21T15:06:01.490Z,5.80
2023-01-21T15:08:33.552Z,5.65
2023-01-21T15:11:05.690Z,5.70
2023-01-21T15:13:39.400Z,6.82
2023-01-21T15:16:17.325Z,7.30
2023-01-21T15:18:51.792Z,4.45
2023-01-21T15:21:38.116Z,4.35
2023-01-21T15:24:25.989Z,5.50
2023-01-21T15:27:17.592Z,8.23
2023-01-21T15:30:08.241Z,9.07
2023-01-21T15:32:39.267Z,6.72
2023-01-21T15:35:25.995Z,6.90
2023-01-21T15:38:02.942Z,6.15
2023-01-21T15:40:38.548Z,7.22
2023-01-21T15:43:16.439Z,7.22
2023-01-21T15:45:52.879Z,4.93
2023-01-21T15:48:45.361Z,5.25
2023-01-21T15:51:25.962Z,6.93
2023-01-21T15:54:09.772Z,6.25
2023-01-21T15:56:57.357Z,5.95
2023-01-21T15:59:51.877Z,7.50
2023-01-21T16:02:25.767Z,5.25
2023-01-21T16:05:13.838Z,5.68
2023-01-21T16:07:55.347Z,6.72
2023-01-21T16:10:32.836Z,5.43
2023-01-21T16:13:15.221Z,5.13
2023-01-21T16:15:57.566Z,6.80
2023-01-21T16:18:33.865Z,7.32
2023-01-21T16:21:04.611Z,6.50
2023-01-21T16:23:38.000Z,7.13
2023-01-21T16:26:06.630Z,6.18
2023-01-21T16:28:49.460Z,7.28
2023-01-21T16:31:18.569Z,8.25
2023-01-21T16:33:48.279Z,9.32
2023-01-21T16:36:17.332Z,8.32
2023-01-21T16:38:47.129Z,8.95
2023-01-21T16:41:24.411Z,7.22
2023-01-21T16:43:55.190Z,6.72
2023-01-21T16:46:27.081Z,10.90
2023-01-21T16:48:58.520Z,6.22
2023-01-21T16:51:31.060Z,5.78
2023-01-21T16:54:24.884Z,6.45
2023-01-21T16:56:59.641Z,5.88
2023-01-21T16:59:30.299Z,5.88
2023-01-21T17:02:00.410Z,5.63
2023-01-21T17:04:31.275Z,5.70
2023-01-21T17:07:01.530Z,5.63
2023-01-21T17:09:33.601Z,5.18
2023-01-21T17:12:07.867Z,6.78
2023-01-21T17:14:36.743Z,5.45
2023-01-21T17:17:09.464Z,5.57
2023-01-21T17:19:43.849Z,5.75
2023-01-21T17:22:16.284Z,7.07
2023-01-21T17:25:01.453Z,7.50
2023-01-21T17:27:31.782Z,7.35
2023-01-21T17:30:18.791Z,6.32
2023-01-21T17:32:54.535Z,6.55
2023-01-21T17:35:26.280Z,7.07
2023-01-21T17:37:56.896Z,7.57
2023-01-21T17:40:31.420Z,6.78
2023-01-21T17:43:02.043Z,5.70
2023-01-21T17:45:33.503Z,5.95
2023-01-21T17:48:14.110Z,5.68
2023-01-21T17:50:47.812Z,7.20
2023-01-21T17:53:23.489Z,7.88
2023-01-21T17:56:01.034Z,6.45
2023-01-21T17:58:50.443Z,6.32
2023-01-21T18:01:19.666Z,7.38
2023-01-21T18:03:48.933Z,5.90
2023-01-21T18:06:23.804Z,7.38
2023-01-21T18:08:53.290Z,5.97
2023-01-21T18:11:22.809Z,5.18
2023-01-21T18:13:52.669Z,6.93
2023-01-21T18:16:21.332Z,6.30
2023-01-21T18:18:50.815Z,5.95
2023-01-21T18:21:22.777Z,5.75
2023-01-21T18:23:51.573Z,5.15
2023-01-21T18:26:29.796Z,5.27
2023-01-21T18:28:58.325Z,5.37
2023-01-21T18:31:26.678Z,5.30
2023-01-21T18:33:55.699Z,4.85
2023-01-21T18:36:25.638Z,6.20
2023-01-21T18:38:54.157Z,6.40
2023-01-21T18:41:22.966Z,13.43
2023-01-21T18:43:51.514Z,4.68
2023-01-21T18:46:21.023Z,12.00
2023-01-21T18:48:49.913Z,6.28
2023-01-21T18:51:18.364Z,8.70
2023-01-21T18:53:48.608Z,7.07
2023-01-21T18:56:18.087Z,8.15
2023-01-21T18:58:47.453Z,5.55
2023-01-21T19:01:23.072Z,6.15
2023-01-21T19:03:55.208Z,5.10
2023-01-21T19:06:25.238Z,5.88
2023-01-21T19:08:56.675Z,5.07
2023-01-21T19:11:24.997Z,4.28
2023-01-21T19:13:53.693Z,4.97
2023-01-21T19:16:22.987Z,3.88
2023-01-21T19:18:51.897Z,3.70
2023-01-21T19:21:20.406Z,4.20
2023-01-21T19:23:49.116Z,3.70
2023-01-21T19:26:18.770Z,8.00
2023-01-21T19:28:47.522Z,19.50
2023-01-21T19:31:16.023Z,14.27
2023-01-21T19:33:45.917Z,5.32
2023-01-21T19:36:16.602Z,6.25
2023-01-21T19:38:54.167Z,6.25
2023-01-21T19:41:24.052Z,5.18
2023-01-21T19:43:53.165Z,10.57
2023-01-21T19:46:23.867Z,5.70
2023-01-21T19:48:53.871Z,16.60
2023-01-21T19:51:22.356Z,9.90
2023-01-21T19:53:50.902Z,11.82
2023-01-21T19:56:25.339Z,13.82
2023-01-21T19:58:54.498Z,5.75
2023-01-21T20:01:23.142Z,6.38
2023-01-21T20:04:00.062Z,5.97
2023-01-21T20:06:35.375Z,5.68
2023-01-21T20:09:04.603Z,5.45
2023-01-21T20:11:35.883Z,4.78
2023-01-21T20:14:04.607Z,4.68
2023-01-21T20:16:34.038Z,4.28
2023-01-21T20:19:03.754Z,4.05
2023-01-21T20:24:00.791Z,3.83
2023-01-21T20:26:29.158Z,4.30
2023-01-21T20:29:01.419Z,4.22
2023-01-21T20:31:30.427Z,3.28
2023-01-21T20:36:28.304Z,3.90
2023-01-21T20:38:57.350Z,3.78
2023-01-21T20:41:25.639Z,3.92
2023-01-21T20:43:54.497Z,4.43
2023-01-21T20:46:28.944Z,4.50
2023-01-21T20:48:58.707Z,4.00
2023-01-21T20:53:55.590Z,4.20
2023-01-21T20:56:28.208Z,3.50
2023-01-21T20:58:58.492Z,3.90
2023-01-21T21:01:31.123Z,4.22
2023-01-21T21:03:59.756Z,7.30
2023-01-21T21:06:29.736Z,5.20
2023-01-21T21:08:58.480Z,3.35
2023-01-21T21:11:26.824Z,3.67
2023-01-21T21:13:56.206Z,4.93
2023-01-21T21:16:29.896Z,4.03
2023-01-21T21:18:59.538Z,3.58
2023-01-21T21:21:27.836Z,4.00
2023-01-21T21:23:56.440Z,3.70
2023-01-21T21:26:26.302Z,4.00
2023-01-21T21:28:56.303Z,3.72
2023-01-21T21:31:26.447Z,3.72
2023-01-21T21:33:56.425Z,4.80
2023-01-21T21:36:25.031Z,4.80
2023-01-21T21:38:56.182Z,5.47
2023-01-21T21:41:43.805Z,5.00
2023-01-21T21:44:13.208Z,4.03
2023-01-21T21:46:59.445Z,5.10
2023-01-21T21:49:30.025Z,4.03
2023-01-21T21:52:00.286Z,4.95
2023-01-21T21:54:29.031Z,3.92
2023-01-21T21:56:57.767Z,3.95
2023-01-21T21:59:27.665Z,4.57
2023-01-21T22:01:55.941Z,4.00
2023-01-21T22:04:24.404Z,3.83
2023-01-21T22:06:54.364Z,3.72
2023-01-21T22:09:23.451Z,4.10
2023-01-21T22:11:51.664Z,4.05
2023-01-21T22:14:20.120Z,4.27
2023-01-21T22:16:52.024Z,3.97
2023-01-21T22:19:20.666Z,4.90
2023-01-21T22:21:48.843Z,3.92
2023-01-21T22:24:19.193Z,3.83
2023-01-21T22:26:47.375Z,5.43
2023-01-21T22:29:15.816Z,9.02
2023-01-21T22:31:44.429Z,14.55
2023-01-21T22:34:13.862Z,12.15
2023-01-21T22:36:46.999Z,12.85
2023-01-21T22:39:15.731Z,12.10
2023-01-21T22:41:45.376Z,9.77
2023-01-21T22:44:13.870Z,6.13
2023-01-21T22:46:42.370Z,4.70
2023-01-21T22:49:11.818Z,4.72
2023-01-21T22:51:40.057Z,4.60
2023-01-21T22:54:08.871Z,4.38
2023-01-21T22:56:50.893Z,5.43
2023-01-21T22:59:22.024Z,4.30
2023-01-21T23:01:51.288Z,4.60
2023-01-21T23:04:20.288Z,6.13
2023-01-21T23:06:48.961Z,4.80
2023-01-21T23:09:19.021Z,4.10
2023-01-21T23:11:47.415Z,3.78
2023-01-21T23:14:17.260Z,4.20
2023-01-21T23:16:47.407Z,4.25
2023-01-21T23:19:16.400Z,3.70
2023-01-21T23:21:44.735Z,4.57
2023-01-21T23:24:14.127Z,4.53
2023-01-21T23:26:43.041Z,4.47
2023-01-21T23:29:11.721Z,7.00
2023-01-21T23:31:40.144Z,7.35
2023-01-21T23:34:14.186Z,3.40
2023-01-21T23:36:42.659Z,4.63
2023-01-21T23:39:11.440Z,4.22
2023-01-21T23:41:39.866Z,10.52
2023-01-21T23:44:10.604Z,5.32
2023-01-21T23:46:38.976Z,3.80
2023-01-21T23:49:08.135Z,4.27
2023-01-21T23:51:37.860Z,4.45
2023-01-21T23:54:06.606Z,3.90
2023-01-21T23:56:35.501Z,7.47
2023-01-21T23:59:04.352Z,9.40
